PGM weather

Port Graham Airport
Port Graham, Alaska, United States

Public forecast

Using degrees Fahrenheit for public forecast. Weather courtesy of forecast.io.

METAR (pilot weather report)

Closest report is Seldovia Airport, 6.9 nm (12.7 km) NE. Retrieved 2019/09/22 11:53 UTC (1 hour ago):

PASO 221153Z AUTO 17003KT 10SM CLR 04/02 A2963 RMK AO2 SLP034 70012 T00390022 10089 20039 56003 TSNO

TAF (pilot weather forecast)

Closest forecast is Homer Airport, 20.9 nm (38.7 km) NNE. Retrieved 2019/09/22 12:24 UTC (34 minutes ago):

TAF PAHO 221122Z 2212/2312 01004KT P6SM SKC FM221600 VRB05KT P6SM SCT060 BKN100 FM230600 04008KT P6SM SCT100 BKN200